createdAt,value
2022-08-05T00:00:16.035Z,30.41
2022-08-05T00:02:49.124Z,30.25
2022-08-05T00:06:02.039Z,30.11
2022-08-05T00:08:33.006Z,29.98
2022-08-05T00:10:57.110Z,29.99
2022-08-05T00:13:38.128Z,29.92
2022-08-05T00:16:08.441Z,29.81
2022-08-05T00:18:36.351Z,29.81
2022-08-05T00:21:05.006Z,29.81
2022-08-05T00:23:46.142Z,29.79
2022-08-05T00:26:22.121Z,29.78
2022-08-05T00:28:49.491Z,29.87
2022-08-05T00:31:16.421Z,29.97
2022-08-05T00:34:55.705Z,29.95
2022-08-05T00:37:10.449Z,30.01
2022-08-05T00:39:44.271Z,29.95
2022-08-05T00:42:32.882Z,29.86
2022-08-05T00:45:00.049Z,29.86
2022-08-05T00:47:31.587Z,29.88
2022-08-05T00:50:13.573Z,29.86
2022-08-05T00:52:40.204Z,29.82
2022-08-05T00:55:07.159Z,29.82
2022-08-05T00:57:55.498Z,29.79
2022-08-05T01:00:20.439Z,29.80
2022-08-05T01:02:50.143Z,29.75
2022-08-05T01:05:16.933Z,29.65
2022-08-05T01:08:40.148Z,29.52
2022-08-05T01:10:37.248Z,29.42
2022-08-05T01:13:19.441Z,29.51
2022-08-05T01:15:56.732Z,29.62
2022-08-05T01:18:29.637Z,29.73
2022-08-05T01:21:12.065Z,29.81
2022-08-05T01:23:58.027Z,29.85
2022-08-05T01:26:30.554Z,29.81
2022-08-05T01:29:05.339Z,29.82
2022-08-05T01:31:46.792Z,29.84
2022-08-05T01:34:31.023Z,29.77
2022-08-05T01:37:24.987Z,29.80
2022-08-05T01:39:58.735Z,29.80
2022-08-05T01:42:27.745Z,29.82
2022-08-05T01:44:59.827Z,29.82
2022-08-05T01:47:39.417Z,29.84
2022-08-05T01:50:15.075Z,29.69
2022-08-05T01:52:50.170Z,29.51
2022-08-05T01:55:20.306Z,29.36
2022-08-05T01:58:11.970Z,29.41
2022-08-05T02:00:40.756Z,29.48
2022-08-05T02:03:31.475Z,29.42
2022-08-05T02:06:03.381Z,29.45
2022-08-05T02:08:54.838Z,29.48
2022-08-05T02:11:33.503Z,29.52
2022-08-05T02:14:05.725Z,29.61
2022-08-05T02:16:52.932Z,29.67
2022-08-05T02:19:34.989Z,29.66
2022-08-05T02:22:25.831Z,29.63
2022-08-05T02:24:59.978Z,29.64
2022-08-05T02:27:29.949Z,29.66
2022-08-05T02:30:17.332Z,29.66
2022-08-05T02:32:48.153Z,29.65
2022-08-05T02:35:27.752Z,29.64
2022-08-05T02:37:56.679Z,29.63
2022-08-05T02:40:27.549Z,29.62
2022-08-05T02:42:56.396Z,29.54
2022-08-05T02:45:25.297Z,29.46
2022-08-05T02:48:06.465Z,29.43
2022-08-05T02:50:38.146Z,29.41
2022-08-05T02:53:11.798Z,29.39
2022-08-05T02:55:52.065Z,29.34
2022-08-05T02:58:23.105Z,29.37
2022-08-05T03:00:55.925Z,29.40
2022-08-05T03:03:23.579Z,29.41
2022-08-05T03:06:55.332Z,29.40
2022-08-05T03:08:42.623Z,29.35
2022-08-05T03:11:55.034Z,29.39
2022-08-05T03:14:13.574Z,29.37
2022-08-05T03:16:40.934Z,29.40
2022-08-05T03:19:16.903Z,29.38
2022-08-05T03:21:48.921Z,29.13
2022-08-05T03:24:29.586Z,28.81
2022-08-05T03:26:58.162Z,28.56
2022-08-05T03:29:24.867Z,28.38
2022-08-05T03:32:12.179Z,28.51
2022-08-05T03:34:42.752Z,28.66
2022-08-05T03:37:18.540Z,28.78
2022-08-05T03:40:01.486Z,28.92
2022-08-05T03:42:32.339Z,29.01
2022-08-05T03:45:01.762Z,28.99
2022-08-05T03:47:47.251Z,28.91
2022-08-05T03:50:15.910Z,28.83
2022-08-05T03:54:58.751Z,28.81
2022-08-05T03:56:12.162Z,28.71
2022-08-05T03:58:46.900Z,28.58
2022-08-05T04:01:16.324Z,28.49
2022-08-05T04:04:09.808Z,28.48
2022-08-05T04:06:37.428Z,28.49
2022-08-05T04:09:08.715Z,28.50
2022-08-05T04:11:47.610Z,28.48
2022-08-05T04:14:19.410Z,28.56
2022-08-05T04:16:58.523Z,28.66
2022-08-05T04:19:25.743Z,28.68
2022-08-05T04:22:09.916Z,28.57
2022-08-05T04:24:44.415Z,28.40
2022-08-05T04:27:19.231Z,28.29
2022-08-05T04:29:45.872Z,28.26
2022-08-05T04:32:15.646Z,28.19
2022-08-05T04:34:57.559Z,28.10
2022-08-05T04:38:00.898Z,28.08
2022-08-05T04:40:11.679Z,28.06
2022-08-05T04:42:38.384Z,28.02
2022-08-05T04:45:08.670Z,28.03
2022-08-05T04:47:47.185Z,28.05
2022-08-05T04:50:14.055Z,28.09
2022-08-05T04:53:01.774Z,28.12
2022-08-05T04:56:15.086Z,28.11
2022-08-05T04:58:17.148Z,28.06
2022-08-05T05:00:50.662Z,28.04
2022-08-05T05:03:18.824Z,27.92
2022-08-05T05:06:40.635Z,27.88
2022-08-05T05:08:36.283Z,27.88
2022-08-05T05:11:10.528Z,28.01
2022-08-05T05:13:43.479Z,28.13
2022-08-05T05:16:10.530Z,28.24
2022-08-05T05:18:38.401Z,28.28
2022-08-05T05:21:05.558Z,28.32
2022-08-05T05:23:39.041Z,28.36
2022-08-05T05:26:19.145Z,28.31
2022-08-05T05:28:45.778Z,28.32
2022-08-05T05:31:12.720Z,28.36
2022-08-05T05:33:58.859Z,28.47
2022-08-05T05:36:28.559Z,28.54
2022-08-05T05:38:57.260Z,28.42
2022-08-05T05:41:24.348Z,28.33
2022-08-05T05:43:57.873Z,28.28
2022-08-05T05:46:27.096Z,28.34
2022-08-05T05:48:54.005Z,28.45
2022-08-05T05:51:22.654Z,28.47
2022-08-05T05:53:58.146Z,28.39
2022-08-05T05:56:32.936Z,28.37
2022-08-05T05:59:05.317Z,28.30
2022-08-05T06:01:37.945Z,28.32
2022-08-05T06:04:14.570Z,28.26
2022-08-05T06:06:43.371Z,27.86
2022-08-05T06:09:16.784Z,27.71
2022-08-05T06:12:01.424Z,27.71
2022-08-05T06:14:30.913Z,27.64
2022-08-05T06:16:58.430Z,27.74
2022-08-05T06:19:35.450Z,27.96
2022-08-05T06:22:06.705Z,28.25
2022-08-05T06:24:35.056Z,28.17
2022-08-05T06:27:03.916Z,28.31
2022-08-05T06:29:48.863Z,28.46
2022-08-05T06:32:26.186Z,28.37
2022-08-05T06:34:58.467Z,28.48
2022-08-05T06:37:55.917Z,28.56
2022-08-05T06:40:18.549Z,28.35
2022-08-05T06:42:51.910Z,28.61
2022-08-05T06:46:03.346Z,29.07
2022-08-05T06:48:47.376Z,29.23
2022-08-05T06:50:56.065Z,29.04
2022-08-05T06:53:28.245Z,29.08
2022-08-05T06:55:56.321Z,29.51
2022-08-05T06:58:35.504Z,29.94
2022-08-05T07:01:05.867Z,30.28
2022-08-05T07:03:33.941Z,30.54
2022-08-05T07:06:06.019Z,30.61
2022-08-05T07:08:47.704Z,30.43
2022-08-05T07:11:22.370Z,30.39
2022-08-05T07:14:20.074Z,30.49
2022-08-05T07:18:02.352Z,30.98
2022-08-05T07:22:28.139Z,31.14
2022-08-05T07:24:58.183Z,30.59
2022-08-05T07:27:27.642Z,30.21
2022-08-05T07:30:22.742Z,29.89
2022-08-05T07:32:55.162Z,29.75
2022-08-05T07:36:03.319Z,29.95
2022-08-05T07:38:12.439Z,29.89
2022-08-05T07:40:59.092Z,29.73
2022-08-05T07:43:29.537Z,29.82
2022-08-05T07:45:57.317Z,30.23
2022-08-05T07:49:00.627Z,30.60
2022-08-05T07:51:23.349Z,30.54
2022-08-05T07:53:58.910Z,30.55
2022-08-05T07:57:02.578Z,30.72
2022-08-05T07:59:15.526Z,30.62
2022-08-05T08:01:51.821Z,30.60
2022-08-05T08:04:37.823Z,30.39
2022-08-05T08:07:07.369Z,30.29
2022-08-05T08:09:34.536Z,30.07
2022-08-05T08:12:09.144Z,29.88
2022-08-05T08:14:42.500Z,30.18
2022-08-05T08:17:16.050Z,30.38
2022-08-05T08:20:42.863Z,30.19
2022-08-05T08:22:32.559Z,29.82
2022-08-05T08:25:03.139Z,29.48
2022-08-05T08:27:40.114Z,29.31
2022-08-05T08:30:29.766Z,29.33
2022-08-05T08:33:01.044Z,29.49
2022-08-05T08:35:34.722Z,29.53
2022-08-05T08:38:08.332Z,29.23
2022-08-05T08:40:39.455Z,29.13
2022-08-05T08:45:16.652Z,29.14
2022-08-05T08:45:54.616Z,29.25
2022-08-05T08:49:03.067Z,29.41
2022-08-05T08:52:02.148Z,29.55
2022-08-05T08:53:57.944Z,29.57
2022-08-05T08:56:27.120Z,29.46
2022-08-05T08:58:53.905Z,29.49
2022-08-05T09:01:21.019Z,29.47
2022-08-05T09:03:57.199Z,29.34
2022-08-05T09:06:28.038Z,29.42
2022-08-05T09:09:00.344Z,29.63
2022-08-05T09:11:51.176Z,29.87
2022-08-05T09:14:58.017Z,30.20
2022-08-05T09:17:01.716Z,30.55
2022-08-05T09:19:36.780Z,31.62
2022-08-05T09:22:17.634Z,33.78
2022-08-05T09:25:14.012Z,35.30
2022-08-05T09:28:04.449Z,36.46
2022-08-05T09:30:34.087Z,37.92
2022-08-05T09:33:04.933Z,38.91
2022-08-05T09:35:32.781Z,39.48
2022-08-05T09:38:12.712Z,40.90
2022-08-05T09:40:52.441Z,42.86
2022-08-05T09:43:28.098Z,43.87
2022-08-05T09:46:30.220Z,43.70
2022-08-05T09:49:07.754Z,44.16
2022-08-05T09:51:48.824Z,43.80
2022-08-05T09:54:21.243Z,41.49
2022-08-05T09:56:57.556Z,41.68
2022-08-05T09:59:28.125Z,42.65
2022-08-05T10:01:57.890Z,44.35
2022-08-05T10:04:39.633Z,45.34
2022-08-05T10:07:19.598Z,46.48
2022-08-05T10:10:13.918Z,47.97
2022-08-05T10:13:02.641Z,49.07
2022-08-05T10:15:41.418Z,49.27
2022-08-05T10:18:09.692Z,49.60
2022-08-05T10:20:48.422Z,49.22
2022-08-05T10:23:55.071Z,47.58
2022-08-05T10:26:14.360Z,46.49
2022-08-05T10:28:46.650Z,47.24
2022-08-05T10:32:51.660Z,46.67
2022-08-05T10:34:01.858Z,45.97
2022-08-05T10:36:29.936Z,44.03
2022-08-05T10:39:05.235Z,42.26
2022-08-05T10:42:33.437Z,41.93
2022-08-05T10:45:01.877Z,45.50
2022-08-05T10:47:44.087Z,48.30
2022-08-05T10:50:36.213Z,50.34
2022-08-05T10:53:03.989Z,51.01
2022-08-05T10:55:32.933Z,51.67
2022-08-05T10:58:20.640Z,51.48
2022-08-05T11:00:48.432Z,52.23
2022-08-05T11:03:23.461Z,53.13
2022-08-05T11:06:15.007Z,52.95
2022-08-05T11:09:13.234Z,50.46
2022-08-05T11:11:53.416Z,49.62
2022-08-05T11:17:59.953Z,49.59
2022-08-05T11:20:32.984Z,49.50
2022-08-05T11:23:05.818Z,47.82
2022-08-05T11:26:04.084Z,46.73
2022-08-05T11:28:32.454Z,48.40
2022-08-05T11:31:06.128Z,48.46
2022-08-05T11:33:46.683Z,48.30
2022-08-05T11:36:34.429Z,47.53
2022-08-05T11:39:09.270Z,47.52
2022-08-05T11:42:01.614Z,46.77
2022-08-05T11:44:53.220Z,45.16
2022-08-05T11:47:22.061Z,45.08
2022-08-05T11:50:08.599Z,45.90
2022-08-05T11:52:35.343Z,45.58
2022-08-05T11:55:07.639Z,46.58
2022-08-05T11:58:08.477Z,47.53
2022-08-05T12:00:28.861Z,46.17
2022-08-05T12:02:56.623Z,46.40
2022-08-05T12:05:32.151Z,46.92
2022-08-05T12:08:10.897Z,48.18
2022-08-05T12:10:45.206Z,48.12
2022-08-05T12:13:28.187Z,47.15
2022-08-05T12:16:18.540Z,46.39
2022-08-05T12:18:49.114Z,46.11
2022-08-05T12:21:24.648Z,45.24
2022-08-05T12:24:08.683Z,44.12
2022-08-05T12:26:39.661Z,43.32
2022-08-05T12:29:16.406Z,42.58
2022-08-05T12:31:52.983Z,42.01
2022-08-05T12:34:26.678Z,41.52
2022-08-05T12:36:55.042Z,41.01
2022-08-05T12:39:34.634Z,40.68
2022-08-05T12:42:17.705Z,40.25
2022-08-05T12:44:45.973Z,39.56
2022-08-05T12:47:26.271Z,39.07
2022-08-05T12:50:03.669Z,39.07
2022-08-05T12:52:39.247Z,39.18
2022-08-05T12:55:22.196Z,39.00
2022-08-05T12:58:49.212Z,38.74
2022-08-05T13:02:04.163Z,38.71
2022-08-05T13:03:32.270Z,38.50
2022-08-05T13:06:01.232Z,38.60
2022-08-05T13:08:32.387Z,38.58
2022-08-05T13:11:01.358Z,37.94
2022-08-05T13:14:05.024Z,38.05
2022-08-05T13:16:17.176Z,38.18
2022-08-05T13:18:55.041Z,37.72
2022-08-05T13:21:28.542Z,37.53
2022-08-05T13:24:09.059Z,37.58
2022-08-05T13:26:36.096Z,37.73
2022-08-05T13:29:05.141Z,37.81
2022-08-05T13:32:03.064Z,37.56
2022-08-05T13:34:23.243Z,37.06
2022-08-05T13:36:52.407Z,36.87
2022-08-05T13:40:13.234Z,36.85
2022-08-05T13:42:06.013Z,36.73
2022-08-05T13:44:32.726Z,36.63
2022-08-05T13:47:08.503Z,36.31
2022-08-05T13:49:49.791Z,35.82
2022-08-05T13:52:18.058Z,35.68
2022-08-05T13:54:53.313Z,35.62
2022-08-05T13:57:21.114Z,35.50
2022-08-05T13:59:57.209Z,35.75
2022-08-05T14:02:26.458Z,35.65
2022-08-05T14:05:15.098Z,35.44
2022-08-05T14:08:00.906Z,35.27
2022-08-05T14:10:32.521Z,35.37
2022-08-05T14:12:59.906Z,35.65
2022-08-05T14:16:04.904Z,35.83
2022-08-05T14:18:18.436Z,35.81
2022-08-05T14:20:48.804Z,35.82
2022-08-05T14:23:19.281Z,35.63
2022-08-05T14:25:58.464Z,35.37
2022-08-05T14:28:29.894Z,35.14
2022-08-05T14:30:58.722Z,35.04
2022-08-05T14:33:25.490Z,34.77
2022-08-05T14:35:54.226Z,34.68
2022-08-05T14:38:32.093Z,34.44
2022-08-05T14:41:06.827Z,34.35
2022-08-05T14:43:55.281Z,34.37
2022-08-05T14:46:28.031Z,34.51
2022-08-05T14:48:59.497Z,34.42
2022-08-05T14:51:30.799Z,34.22
2022-08-05T14:54:26.413Z,34.11
2022-08-05T14:56:46.645Z,34.07
2022-08-05T14:59:14.689Z,34.08
2022-08-05T15:01:49.208Z,34.11
2022-08-05T15:04:20.306Z,34.07
2022-08-05T15:06:48.980Z,34.01
2022-08-05T15:09:52.287Z,33.90
2022-08-05T15:12:09.536Z,33.65
2022-08-05T15:14:49.419Z,33.47
2022-08-05T15:17:46.124Z,33.32
2022-08-05T15:20:11.953Z,32.66
2022-08-05T15:22:44.737Z,32.46
2022-08-05T15:25:14.273Z,32.53
2022-08-05T15:27:42.738Z,32.56
2022-08-05T15:30:10.948Z,32.42
2022-08-05T15:32:40.915Z,32.26
2022-08-05T15:35:10.816Z,32.28
2022-08-05T15:38:08.712Z,32.19
2022-08-05T15:41:00.697Z,31.90
2022-08-05T15:43:20.051Z,31.82
2022-08-05T15:45:48.091Z,31.72
2022-08-05T15:48:28.651Z,31.82
2022-08-05T15:50:55.369Z,31.93
2022-08-05T15:53:23.292Z,31.96
2022-08-05T15:56:01.235Z,31.85
2022-08-05T15:58:35.798Z,31.76
2022-08-05T16:01:16.574Z,31.51
2022-08-05T16:03:48.471Z,31.42
2022-08-05T16:06:20.110Z,31.22
2022-08-05T16:08:50.903Z,31.35
2022-08-05T16:11:18.444Z,31.51
2022-08-05T16:13:48.447Z,31.60
2022-08-05T16:16:25.117Z,31.41
2022-08-05T16:18:52.993Z,31.20
2022-08-05T16:21:20.617Z,30.91
2022-08-05T16:24:12.816Z,30.73
2022-08-05T16:27:00.602Z,30.52
2022-08-05T16:29:28.576Z,30.45
2022-08-05T16:31:58.433Z,30.43
2022-08-05T16:34:26.597Z,30.33
2022-08-05T16:36:53.855Z,30.14
2022-08-05T16:39:21.003Z,30.21
2022-08-05T16:42:13.872Z,30.22
2022-08-05T16:44:34.752Z,30.23
2022-08-05T16:47:04.497Z,30.21
2022-08-05T16:49:31.296Z,30.02
2022-08-05T16:51:57.992Z,29.88
2022-08-05T16:54:30.465Z,29.87
2022-08-05T16:56:59.891Z,29.75
2022-08-05T16:59:27.678Z,29.49
2022-08-05T17:01:55.699Z,29.33
2022-08-05T17:04:29.106Z,29.19
2022-08-05T17:07:01.854Z,28.91
2022-08-05T17:09:30.620Z,28.78
2022-08-05T17:12:05.926Z,28.81
2022-08-05T17:14:38.095Z,28.74
2022-08-05T17:17:09.377Z,28.78
2022-08-05T17:19:43.830Z,28.80
2022-08-05T17:22:24.381Z,28.66
2022-08-05T17:24:57.993Z,28.57
2022-08-05T17:27:27.158Z,28.51
2022-08-05T17:30:00.551Z,28.49
2022-08-05T17:32:29.277Z,28.39
2022-08-05T17:34:58.253Z,28.33
2022-08-05T17:37:41.876Z,28.28
2022-08-05T17:40:15.197Z,28.30
2022-08-05T17:42:50.951Z,28.30
2022-08-05T17:45:24.850Z,28.14
2022-08-05T17:47:55.798Z,28.01
2022-08-05T17:50:30.327Z,27.99
2022-08-05T17:53:02.550Z,28.06
2022-08-05T17:55:34.527Z,27.98
2022-08-05T17:58:06.942Z,27.95
2022-08-05T18:00:36.008Z,27.89
2022-08-05T18:03:06.668Z,27.83
2022-08-05T18:05:36.084Z,27.64
2022-08-05T18:08:05.106Z,27.67
2022-08-05T18:10:33.436Z,27.73
2022-08-05T18:13:01.900Z,27.86
2022-08-05T18:15:34.442Z,27.87
2022-08-05T18:18:05.705Z,27.91
2022-08-05T18:20:38.059Z,27.94
2022-08-05T18:23:08.986Z,27.97
2022-08-05T18:25:38.800Z,28.03
2022-08-05T18:28:06.152Z,27.94
2022-08-05T18:30:33.995Z,27.83
2022-08-05T18:33:01.736Z,27.84
2022-08-05T18:36:01.421Z,27.87
2022-08-05T18:38:19.444Z,27.86
2022-08-05T18:41:55.277Z,27.81
2022-08-05T18:43:43.047Z,27.81
2022-08-05T18:46:19.788Z,27.78
2022-08-05T18:48:53.905Z,27.66
2022-08-05T18:52:04.401Z,27.59
2022-08-05T18:54:28.507Z,27.53
2022-08-05T18:57:01.198Z,27.59
2022-08-05T18:59:42.812Z,27.49
2022-08-05T19:02:28.149Z,27.41
2022-08-05T19:05:02.153Z,27.28
2022-08-05T19:07:45.625Z,27.25
2022-08-05T19:10:14.436Z,27.29
2022-08-05T19:12:41.446Z,27.22
2022-08-05T19:15:45.080Z,27.17
2022-08-05T19:18:08.667Z,27.21
2022-08-05T19:20:41.592Z,27.13
2022-08-05T19:24:06.052Z,27.02
2022-08-05T19:26:01.743Z,27.01
2022-08-05T19:28:31.239Z,27.03
2022-08-05T19:31:00.268Z,27.06
2022-08-05T19:33:33.966Z,27.02
2022-08-05T19:36:02.992Z,27.02
2022-08-05T19:38:37.035Z,26.95
2022-08-05T19:41:08.954Z,27.00
2022-08-05T19:44:04.240Z,26.93
2022-08-05T19:46:29.348Z,26.86
2022-08-05T19:49:03.451Z,26.84
2022-08-05T19:52:08.662Z,26.82
2022-08-05T19:54:31.080Z,26.74
2022-08-05T19:56:59.869Z,26.72
2022-08-05T20:00:00.938Z,26.62
2022-08-05T20:02:17.866Z,26.61
2022-08-05T20:04:46.225Z,26.62
2022-08-05T20:07:15.094Z,26.56
2022-08-05T20:09:54.770Z,26.51
2022-08-05T20:12:24.929Z,26.45
2022-08-05T20:14:53.039Z,26.34
2022-08-05T20:17:23.840Z,26.32
2022-08-05T20:19:56.954Z,26.27
2022-08-05T20:22:26.981Z,26.27
2022-08-05T20:24:55.765Z,26.25
2022-08-05T20:27:27.023Z,26.21
2022-08-05T20:29:57.704Z,26.15
2022-08-05T20:32:26.562Z,26.10
2022-08-05T20:34:53.783Z,25.99
2022-08-05T20:38:04.657Z,25.94
2022-08-05T20:40:09.197Z,25.93
2022-08-05T20:42:36.186Z,25.91
2022-08-05T20:45:04.598Z,25.94
2022-08-05T20:47:32.720Z,25.96
2022-08-05T20:50:02.081Z,25.93
2022-08-05T20:52:29.726Z,25.86
2022-08-05T20:55:15.988Z,25.81
2022-08-05T20:57:45.000Z,25.73
2022-08-05T21:00:41.248Z,25.70
2022-08-05T21:03:06.942Z,25.66
2022-08-05T21:05:48.230Z,25.63
2022-08-05T21:08:26.595Z,25.56
2022-08-05T21:10:59.757Z,25.45
2022-08-05T21:13:48.293Z,25.37
2022-08-05T21:16:19.179Z,25.34
2022-08-05T21:18:46.151Z,25.29
2022-08-05T21:21:12.884Z,25.34
2022-08-05T21:23:39.701Z,25.23
2022-08-05T21:26:12.389Z,25.19
2022-08-05T21:28:47.912Z,25.19
2022-08-05T21:31:19.243Z,25.14
2022-08-05T21:33:47.501Z,25.10
2022-08-05T21:36:27.496Z,25.02
2022-08-05T21:38:56.690Z,24.96
2022-08-05T21:41:23.682Z,24.97
2022-08-05T21:43:50.725Z,24.97
2022-08-05T21:46:28.107Z,24.99
2022-08-05T21:48:56.588Z,24.97
2022-08-05T21:51:25.050Z,24.95
2022-08-05T21:54:11.271Z,24.86
2022-08-05T21:56:44.281Z,24.82
2022-08-05T21:59:24.025Z,24.78
2022-08-05T22:01:54.520Z,24.72
2022-08-05T22:04:25.529Z,24.73
2022-08-05T22:06:52.774Z,24.70
2022-08-05T22:09:21.114Z,24.74
2022-08-05T22:11:48.575Z,24.70
2022-08-05T22:14:33.520Z,24.62
2022-08-05T22:17:03.742Z,24.46
2022-08-05T22:19:57.534Z,24.39
2022-08-05T22:22:27.141Z,24.34
2022-08-05T22:25:21.228Z,24.29
2022-08-05T22:28:09.152Z,24.31
2022-08-05T22:30:56.200Z,24.31
2022-08-05T22:33:56.974Z,24.29
2022-08-05T22:36:15.581Z,24.25
2022-08-05T22:38:48.006Z,24.27
2022-08-05T22:41:26.307Z,24.23
2022-08-05T22:44:07.835Z,24.16
2022-08-05T22:46:39.603Z,24.14
2022-08-05T22:49:12.422Z,24.06
2022-08-05T22:52:06.673Z,24.02
2022-08-05T22:54:36.255Z,23.99
2022-08-05T22:57:04.738Z,23.95
2022-08-05T22:59:45.514Z,23.95
2022-08-05T23:02:17.797Z,23.96
2022-08-05T23:04:51.111Z,23.97
2022-08-05T23:07:18.383Z,23.95
2022-08-05T23:09:58.488Z,23.96
2022-08-05T23:12:32.445Z,23.91
2022-08-05T23:15:03.132Z,23.85
2022-08-05T23:17:34.419Z,23.80
2022-08-05T23:20:16.536Z,23.78
2022-08-05T23:22:47.445Z,23.74
2022-08-05T23:25:17.688Z,23.68
2022-08-05T23:28:03.640Z,23.64
2022-08-05T23:30:40.338Z,23.61
2022-08-05T23:33:22.526Z,23.58
2022-08-05T23:35:56.069Z,23.55
2022-08-05T23:38:24.148Z,23.53
2022-08-05T23:40:52.870Z,23.46
2022-08-05T23:43:25.667Z,23.42
2022-08-05T23:46:20.252Z,23.32
2022-08-05T23:48:59.211Z,23.28
2022-08-05T23:51:52.555Z,23.29
2022-08-05T23:54:25.287Z,23.28
2022-08-05T23:56:53.937Z,23.28
2022-08-05T23:59:20.546Z,23.27
